createdAt,value
2018-12-01T00:00:22.258Z,25.67
2018-12-01T00:02:51.532Z,29.10
2018-12-01T00:05:19.916Z,29.10
2018-12-01T00:07:49.313Z,26.47
2018-12-01T00:10:17.704Z,25.47
2018-12-01T00:12:46.179Z,28.27
2018-12-01T00:15:18.960Z,25.10
2018-12-01T00:17:47.440Z,29.30
2018-12-01T00:20:17.171Z,26.03
2018-12-01T00:22:45.557Z,24.73
2018-12-01T00:25:13.971Z,27.93
2018-12-01T00:27:42.394Z,26.70
2018-12-01T00:30:13.711Z,28.87
2018-12-01T00:32:43.250Z,25.43
2018-12-01T00:35:13.023Z,27.17
2018-12-01T00:37:41.451Z,29.20
2018-12-01T00:40:14.826Z,27.17
2018-12-01T00:42:43.366Z,26.07
2018-12-01T00:45:12.918Z,28.93
2018-12-01T00:47:41.400Z,29.13
2018-12-01T00:50:13.778Z,28.00
2018-12-01T00:52:42.199Z,29.33
2018-12-01T00:55:12.907Z,30.87
2018-12-01T00:57:41.279Z,24.80
2018-12-01T01:00:16.522Z,29.67
2018-12-01T01:02:50.986Z,27.07
2018-12-01T01:05:20.298Z,26.70
2018-12-01T01:07:48.759Z,26.23
2018-12-01T01:10:17.149Z,25.47
2018-12-01T01:12:45.583Z,26.03
2018-12-01T01:15:14.020Z,29.23
2018-12-01T01:17:42.433Z,25.57
2018-12-01T01:20:14.923Z,24.87
2018-12-01T01:22:43.571Z,25.53
2018-12-01T01:25:13.339Z,28.23
2018-12-01T01:27:41.754Z,25.43
2018-12-01T01:30:16.067Z,25.40
2018-12-01T01:32:44.468Z,25.70
2018-12-01T01:35:13.048Z,27.33
2018-12-01T01:37:41.611Z,26.63
2018-12-01T01:40:13.035Z,29.50
2018-12-01T01:42:41.476Z,29.17
2018-12-01T01:45:13.870Z,27.50
2018-12-01T01:47:42.273Z,28.87
2018-12-01T01:50:13.279Z,27.83
2018-12-01T01:52:41.703Z,29.87
2018-12-01T01:55:11.155Z,29.87
2018-12-01T01:57:39.751Z,30.90
2018-12-01T02:00:23.080Z,30.83
2018-12-01T02:02:52.384Z,29.77
2018-12-01T02:05:21.830Z,28.47
2018-12-01T02:07:50.479Z,30.77
2018-12-01T02:10:19.879Z,29.23
2018-12-01T02:12:48.302Z,28.40
2018-12-01T02:15:16.724Z,33.27
2018-12-01T02:17:45.140Z,31.03
2018-12-01T02:20:15.543Z,30.07
2018-12-01T02:22:44.018Z,29.37
2018-12-01T02:25:13.458Z,30.90
2018-12-01T02:27:41.890Z,30.70
2018-12-01T02:30:12.821Z,31.23
2018-12-01T02:32:41.576Z,30.47
2018-12-01T02:35:12.569Z,31.70
2018-12-01T02:37:40.954Z,33.20
2018-12-01T02:40:10.535Z,30.33
2018-12-01T02:42:39.907Z,30.27
2018-12-01T02:45:19.616Z,32.07
2018-12-01T02:47:48.066Z,33.33
2018-12-01T02:50:20.744Z,30.80
2018-12-01T02:52:49.133Z,34.57
2018-12-01T02:55:17.520Z,31.20
2018-12-01T02:57:45.971Z,32.07
2018-12-01T03:00:14.364Z,32.63
2018-12-01T03:02:42.744Z,31.17
2018-12-01T03:05:12.114Z,31.83
2018-12-01T03:07:40.895Z,31.43
2018-12-01T03:10:11.878Z,30.50
2018-12-01T03:12:40.291Z,28.23
2018-12-01T03:15:09.938Z,29.93
2018-12-01T03:17:38.367Z,27.47
2018-12-01T03:20:11.118Z,26.27
2018-12-01T03:22:39.546Z,27.50
2018-12-01T03:25:09.157Z,27.13
2018-12-01T03:27:37.610Z,26.50
2018-12-01T03:30:09.719Z,26.40
2018-12-01T03:32:39.108Z,27.57
2018-12-01T03:35:12.946Z,25.73
2018-12-01T03:37:42.651Z,27.10
2018-12-01T03:40:11.838Z,23.10
2018-12-01T03:42:40.455Z,26.80
2018-12-01T03:45:12.214Z,24.30
2018-12-01T03:47:40.614Z,25.27
2018-12-01T03:50:10.505Z,28.97
2018-12-01T03:52:38.930Z,24.30
2018-12-01T03:55:18.715Z,22.53
2018-12-01T03:57:47.091Z,23.17
2018-12-01T04:00:15.500Z,23.90
2018-12-01T04:02:43.892Z,21.93
2018-12-01T04:05:12.303Z,22.80
2018-12-01T04:07:40.742Z,20.97
2018-12-01T04:10:09.137Z,22.73
2018-12-01T04:12:37.538Z,24.77
2018-12-01T04:15:05.955Z,21.97
2018-12-01T04:17:34.511Z,22.77
2018-12-01T04:20:02.935Z,25.47
2018-12-01T04:22:31.311Z,21.43
2018-12-01T04:24:59.717Z,23.00
2018-12-01T04:27:28.103Z,19.93
2018-12-01T04:29:56.509Z,20.10
2018-12-01T04:32:24.650Z,20.00
2018-12-01T04:34:52.846Z,20.87
2018-12-01T04:37:21.034Z,21.57
2018-12-01T04:39:49.174Z,18.90
2018-12-01T04:42:17.310Z,20.37
2018-12-01T04:44:45.530Z,23.67
2018-12-01T04:47:13.741Z,18.57
2018-12-01T04:49:41.982Z,20.10
2018-12-01T04:52:10.665Z,20.73
2018-12-01T04:54:38.811Z,20.37
2018-12-01T04:57:06.954Z,16.70
2018-12-01T04:59:35.118Z,21.70
2018-12-01T05:02:03.248Z,20.67
2018-12-01T05:04:31.390Z,18.27
2018-12-01T05:06:59.523Z,19.00
2018-12-01T05:09:27.640Z,16.67
2018-12-01T05:11:55.767Z,20.70
2018-12-01T05:14:23.886Z,21.53
2018-12-01T05:16:52.049Z,17.07
2018-12-01T05:19:20.185Z,19.03
2018-12-01T05:21:48.330Z,18.50
2018-12-01T05:24:16.465Z,20.00
2018-12-01T05:26:44.623Z,18.90
2018-12-01T05:29:12.775Z,19.67
2018-12-01T05:31:40.919Z,17.57
2018-12-01T05:34:09.066Z,16.57
2018-12-01T05:36:37.342Z,18.13
2018-12-01T05:39:07.010Z,18.07
2018-12-01T05:41:35.259Z,20.03
2018-12-01T05:44:03.406Z,18.07
2018-12-01T05:46:31.534Z,19.07
2018-12-01T05:48:59.686Z,18.97
2018-12-01T05:51:27.857Z,19.30
2018-12-01T05:53:56.021Z,18.07
2018-12-01T05:56:24.218Z,17.80
2018-12-01T05:58:52.351Z,16.80
2018-12-01T06:01:20.527Z,20.33
2018-12-01T06:03:48.658Z,16.03
2018-12-01T06:06:16.814Z,17.70
2018-12-01T06:08:44.957Z,19.80
2018-12-01T06:11:13.112Z,19.57
2018-12-01T06:13:41.262Z,20.67
2018-12-01T06:16:09.389Z,19.43
2018-12-01T06:18:37.542Z,19.67
2018-12-01T06:21:05.672Z,18.73
2018-12-01T06:23:33.822Z,17.67
2018-12-01T06:26:01.990Z,20.73
2018-12-01T06:28:30.165Z,18.70
2018-12-01T06:30:58.316Z,22.10
2018-12-01T06:33:26.470Z,21.63
2018-12-01T06:35:54.626Z,20.13
2018-12-01T06:38:22.823Z,19.30
2018-12-01T06:40:50.986Z,22.07
2018-12-01T06:43:19.120Z,17.80
2018-12-01T06:45:47.302Z,20.83
2018-12-01T06:48:15.595Z,15.90
2018-12-01T06:50:43.751Z,17.70
2018-12-01T06:53:12.231Z,19.87
2018-12-01T06:55:40.383Z,17.27
2018-12-01T06:58:08.536Z,16.23
2018-12-01T07:00:36.682Z,14.83
2018-12-01T07:03:05.018Z,17.17
2018-12-01T07:05:33.170Z,19.00
2018-12-01T07:08:01.319Z,17.30
2018-12-01T07:10:29.447Z,15.37
2018-12-01T07:12:58.538Z,16.17
2018-12-01T07:15:27.438Z,17.93
2018-12-01T07:17:55.578Z,17.57
2018-12-01T07:20:23.727Z,15.97
2018-12-01T07:22:52.015Z,20.43
2018-12-01T07:25:20.183Z,13.73
2018-12-01T07:27:48.334Z,15.83
2018-12-01T07:30:16.485Z,16.80
2018-12-01T07:32:45.446Z,19.57
2018-12-01T07:35:13.609Z,15.50
2018-12-01T07:37:41.746Z,19.33
2018-12-01T07:40:11.654Z,38.53
2018-12-01T07:42:39.831Z,25.67
2018-12-01T07:45:08.908Z,32.97
2018-12-01T07:47:37.106Z,22.43
2018-12-01T07:50:07.460Z,17.33
2018-12-01T07:52:35.625Z,13.37
2018-12-01T07:55:03.801Z,15.50
2018-12-01T07:57:31.939Z,19.37
2018-12-01T08:00:00.103Z,15.47
2018-12-01T08:02:28.290Z,15.53
2018-12-01T08:04:56.424Z,16.07
2018-12-01T08:07:24.562Z,20.77
2018-12-01T08:09:52.937Z,19.13
2018-12-01T08:12:21.334Z,16.50
2018-12-01T08:14:49.718Z,13.87
2018-12-01T08:17:18.086Z,12.97
2018-12-01T08:19:46.527Z,18.83
2018-12-01T08:22:14.908Z,13.97
2018-12-01T08:24:43.278Z,14.63
2018-12-01T08:27:11.666Z,16.43
2018-12-01T08:29:40.064Z,15.87
2018-12-01T08:32:08.425Z,32.90
2018-12-01T08:34:36.848Z,44.33
2018-12-01T08:37:05.657Z,22.87
2018-12-01T08:39:34.168Z,16.20
2018-12-01T08:42:02.567Z,14.23
2018-12-01T08:44:30.958Z,17.90
2018-12-01T08:46:59.347Z,16.30
2018-12-01T08:49:27.767Z,14.97
2018-12-01T08:51:56.211Z,11.73
2018-12-01T08:54:24.609Z,12.40
2018-12-01T08:56:53.123Z,15.00
2018-12-01T08:59:21.498Z,15.63
2018-12-01T09:01:49.903Z,15.20
2018-12-01T09:04:18.299Z,14.97
2018-12-01T09:06:46.724Z,11.67
2018-12-01T09:09:15.124Z,14.30
2018-12-01T09:11:43.543Z,13.17
2018-12-01T09:14:12.852Z,13.17
2018-12-01T09:16:41.271Z,12.23
2018-12-01T09:19:09.719Z,13.27
2018-12-01T09:21:38.139Z,15.28
2018-12-01T09:24:06.551Z,14.77
2018-12-01T09:26:34.966Z,11.27
2018-12-01T09:29:03.416Z,11.43
2018-12-01T09:31:31.810Z,12.13
2018-12-01T09:34:00.343Z,14.97
2018-12-01T09:36:28.782Z,11.50
2018-12-01T09:38:57.224Z,12.07
2018-12-01T09:41:25.626Z,10.77
2018-12-01T09:43:54.043Z,9.90
2018-12-01T09:46:22.431Z,13.13
2018-12-01T09:48:50.851Z,10.90
2018-12-01T09:51:19.278Z,9.60
2018-12-01T09:53:47.725Z,7.90
2018-12-01T09:56:16.159Z,8.85
2018-12-01T09:58:44.583Z,8.93
2018-12-01T10:01:13.010Z,7.75
2018-12-01T10:03:47.998Z,8.18
2018-12-01T10:06:16.414Z,9.58
2018-12-01T10:08:44.818Z,8.70
2018-12-01T10:11:13.345Z,9.15
2018-12-01T10:13:41.831Z,9.78
2018-12-01T10:16:10.337Z,9.58
2018-12-01T10:18:38.758Z,9.08
2018-12-01T10:21:07.205Z,12.55
2018-12-01T10:23:35.638Z,8.23
2018-12-01T10:26:04.096Z,11.75
2018-12-01T10:28:32.566Z,9.33
2018-12-01T10:31:01.007Z,9.00
2018-12-01T10:33:29.171Z,7.58
2018-12-01T10:35:57.799Z,7.67
2018-12-01T10:38:26.239Z,8.50
2018-12-01T10:40:54.671Z,8.53
2018-12-01T10:43:23.076Z,9.78
2018-12-01T10:45:51.535Z,10.20
2018-12-01T10:48:21.257Z,8.08
2018-12-01T10:50:49.673Z,5.95
2018-12-01T10:53:18.166Z,8.73
2018-12-01T10:55:46.649Z,8.38
2018-12-01T10:58:19.284Z,8.95
2018-12-01T11:00:55.042Z,9.70
2018-12-01T11:03:32.558Z,8.10
2018-12-01T11:06:02.646Z,6.92
2018-12-01T11:08:31.088Z,9.65
2018-12-01T11:10:59.496Z,6.22
2018-12-01T11:13:27.953Z,6.83
2018-12-01T11:15:56.379Z,8.95
2018-12-01T11:18:25.243Z,7.10
2018-12-01T11:20:53.696Z,6.97
2018-12-01T11:23:22.208Z,5.60
2018-12-01T11:25:50.660Z,8.13
2018-12-01T11:28:19.339Z,7.00
2018-12-01T11:30:47.748Z,5.78
2018-12-01T11:33:16.240Z,7.80
2018-12-01T11:35:44.726Z,8.08
2018-12-01T11:38:13.185Z,5.60
2018-12-01T11:40:42.212Z,6.50
2018-12-01T11:43:10.646Z,9.00
2018-12-01T11:45:39.103Z,7.58
2018-12-01T11:48:08.167Z,6.65
2018-12-01T11:50:36.680Z,9.28
2018-12-01T11:53:05.525Z,5.05
2018-12-01T11:55:33.919Z,6.33
2018-12-01T11:58:02.367Z,5.97
2018-12-01T12:00:31.399Z,7.08
2018-12-01T12:02:59.868Z,5.87
2018-12-01T12:05:28.317Z,6.55
2018-12-01T12:08:28.814Z,5.70
2018-12-01T12:10:57.259Z,7.10
2018-12-01T12:13:26.790Z,5.55
2018-12-01T12:15:55.356Z,7.45
2018-12-01T12:18:23.943Z,6.45
2018-12-01T12:20:52.388Z,6.37
2018-12-01T12:23:20.808Z,7.42
2018-12-01T12:25:48.921Z,6.22
2018-12-01T12:28:17.414Z,6.72
2018-12-01T12:30:45.855Z,4.45
2018-12-01T12:33:14.290Z,4.95
2018-12-01T12:35:42.698Z,7.30
2018-12-01T12:38:11.149Z,5.58
2018-12-01T12:40:39.536Z,8.05
2018-12-01T12:43:08.142Z,7.75
2018-12-01T12:45:36.695Z,6.35
2018-12-01T12:48:06.590Z,6.58
2018-12-01T12:50:35.056Z,5.75
2018-12-01T12:53:03.482Z,6.22
2018-12-01T12:55:31.958Z,5.20
2018-12-01T12:58:00.394Z,5.58
2018-12-01T13:00:29.364Z,5.17
2018-12-01T13:03:08.599Z,7.15
2018-12-01T13:05:39.302Z,6.87
2018-12-01T13:08:08.751Z,7.00
2018-12-01T13:10:37.244Z,7.58
2018-12-01T13:13:06.490Z,6.85
2018-12-01T13:15:36.442Z,6.95
2018-12-01T13:18:07.143Z,7.37
2018-12-01T13:20:35.585Z,6.30
2018-12-01T13:23:04.060Z,4.47
2018-12-01T13:25:32.483Z,6.30
2018-12-01T13:28:06.529Z,6.45
2018-12-01T13:30:41.530Z,7.97
2018-12-01T13:33:10.000Z,6.28
2018-12-01T13:35:38.484Z,7.78
2018-12-01T13:38:07.392Z,5.87
2018-12-01T13:40:35.927Z,9.08
2018-12-01T13:43:04.664Z,7.75
2018-12-01T13:45:33.110Z,6.00
2018-12-01T13:48:01.657Z,7.80
2018-12-01T13:50:30.106Z,8.20
2018-12-01T13:53:00.940Z,8.68
2018-12-01T13:55:29.388Z,7.58
2018-12-01T13:57:57.856Z,5.60
2018-12-01T14:00:27.093Z,6.08
2018-12-01T14:02:55.548Z,5.10
2018-12-01T14:05:23.997Z,8.65
2018-12-01T14:07:52.419Z,5.55
2018-12-01T14:10:22.980Z,5.72
2018-12-01T14:12:52.883Z,4.87
2018-12-01T14:15:22.492Z,5.92
2018-12-01T14:17:50.984Z,8.38
2018-12-01T14:20:19.768Z,5.33
2018-12-01T14:22:49.128Z,5.28
2018-12-01T14:25:18.676Z,6.87
2018-12-01T14:27:51.340Z,7.30
2018-12-01T14:30:19.829Z,7.75
2018-12-01T14:32:48.264Z,7.95
2018-12-01T14:35:47.921Z,9.20
2018-12-01T14:38:17.885Z,5.55
2018-12-01T14:40:47.932Z,5.30
2018-12-01T14:43:16.407Z,7.33
2018-12-01T14:45:46.147Z,6.58
2018-12-01T14:48:14.266Z,5.83
2018-12-01T14:50:48.305Z,5.47
2018-12-01T14:53:12.603Z,7.33
2018-12-01T14:55:41.022Z,6.33
2018-12-01T14:58:09.488Z,6.87
2018-12-01T15:00:38.107Z,7.67
2018-12-01T15:03:07.476Z,7.80
2018-12-01T15:05:36.066Z,8.00
2018-12-01T15:08:04.519Z,7.50
2018-12-01T15:10:32.922Z,9.75
2018-12-01T15:13:01.414Z,8.95
2018-12-01T15:15:29.800Z,8.70
2018-12-01T15:17:58.206Z,5.75
2018-12-01T15:20:26.919Z,7.53
2018-12-01T15:22:57.498Z,8.57
2018-12-01T15:25:26.978Z,10.67
2018-12-01T15:27:55.644Z,8.37
2018-12-01T15:30:29.829Z,6.93
2018-12-01T15:33:15.256Z,7.10
2018-12-01T15:35:46.556Z,7.00
2018-12-01T15:38:15.106Z,7.57
2018-12-01T15:40:45.010Z,7.77
2018-12-01T15:43:13.487Z,6.50
2018-12-01T15:45:42.283Z,9.17
2018-12-01T15:48:10.776Z,9.53
2018-12-01T15:50:39.203Z,7.27
2018-12-01T15:53:09.539Z,8.97
2018-12-01T15:55:38.037Z,8.27
2018-12-01T15:58:07.136Z,9.17
2018-12-01T16:00:36.592Z,10.53
2018-12-01T16:03:09.242Z,8.43
2018-12-01T16:05:37.651Z,12.00
2018-12-01T16:08:07.521Z,11.33
2018-12-01T16:10:35.920Z,7.93
2018-12-01T16:13:10.469Z,7.50
2018-12-01T16:15:40.815Z,6.25
2018-12-01T16:18:09.943Z,8.33
2018-12-01T16:20:38.446Z,6.73
2018-12-01T16:23:06.943Z,7.87
2018-12-01T16:25:35.435Z,9.73
2018-12-01T16:28:03.900Z,8.23
2018-12-01T16:30:36.243Z,7.23
2018-12-01T16:42:23.680Z,5.33
2018-12-01T16:44:52.111Z,9.17
2018-12-01T16:47:20.552Z,6.70
2018-12-01T16:49:49.031Z,8.77
2018-12-01T16:52:17.472Z,10.67
2018-12-01T16:54:45.915Z,11.23
2018-12-01T16:57:14.304Z,9.73
2018-12-01T16:59:42.752Z,8.03
2018-12-01T17:02:11.179Z,9.97
2018-12-01T17:04:39.607Z,9.57
2018-12-01T17:07:08.052Z,7.57
2018-12-01T17:09:36.424Z,6.87
2018-12-01T17:12:04.969Z,6.87
2018-12-01T17:14:33.476Z,7.03
2018-12-01T17:17:01.896Z,7.30
2018-12-01T17:19:30.363Z,7.67
2018-12-01T17:21:58.811Z,7.57
2018-12-01T17:24:27.259Z,7.40
2018-12-01T17:26:55.684Z,9.03
2018-12-01T17:29:24.118Z,8.40
2018-12-01T17:31:52.527Z,6.97
2018-12-01T17:34:20.934Z,7.70
2018-12-01T17:36:49.387Z,6.80
2018-12-01T17:39:17.818Z,8.50
2018-12-01T17:41:46.293Z,6.63
2018-12-01T17:44:14.719Z,8.17
2018-12-01T17:46:43.111Z,9.03
2018-12-01T17:49:11.547Z,11.27
2018-12-01T17:51:40.118Z,10.40
2018-12-01T17:54:13.673Z,8.53
2018-12-01T17:56:42.124Z,9.63
2018-12-01T17:59:11.137Z,9.97
2018-12-01T18:01:39.559Z,10.60
2018-12-01T18:04:08.042Z,7.27
2018-12-01T18:06:36.452Z,8.47
2018-12-01T18:09:07.458Z,8.90
2018-12-01T18:11:35.858Z,11.17
2018-12-01T18:14:04.503Z,8.83
2018-12-01T18:16:32.927Z,11.13
2018-12-01T18:19:01.482Z,9.30
2018-12-01T18:21:29.907Z,12.53
2018-12-01T18:23:58.355Z,9.63
2018-12-01T18:26:26.858Z,12.50
2018-12-01T18:28:55.408Z,11.73
2018-12-01T18:31:28.067Z,10.33
2018-12-01T18:34:01.526Z,12.83
2018-12-01T18:36:29.928Z,11.13
2018-12-01T18:38:58.615Z,14.47
2018-12-01T18:41:27.054Z,12.20
2018-12-01T18:43:55.484Z,13.73
2018-12-01T18:46:23.913Z,11.00
2018-12-01T18:48:52.319Z,11.30
2018-12-01T18:51:20.730Z,14.37
2018-12-01T18:53:49.496Z,8.90
2018-12-01T18:56:17.969Z,15.40
2018-12-01T18:58:46.446Z,10.13
2018-12-01T19:01:14.910Z,12.13
2018-12-01T19:03:43.331Z,8.90
2018-12-01T19:06:11.786Z,11.10
2018-12-01T19:08:40.387Z,10.10
2018-12-01T19:11:08.861Z,12.37
2018-12-01T19:13:37.886Z,8.73
2018-12-01T19:16:07.085Z,8.17
2018-12-01T19:18:35.536Z,12.37
2018-12-01T19:21:03.983Z,10.67
2018-12-01T19:23:32.467Z,8.37
2018-12-01T19:26:01.075Z,10.23
2018-12-01T19:28:29.554Z,12.93
2018-12-01T19:30:57.983Z,12.13
2018-12-01T19:33:26.407Z,12.67
2018-12-01T19:35:55.754Z,12.97
2018-12-01T19:38:25.799Z,19.93
2018-12-01T19:40:54.635Z,10.53
2018-12-01T19:43:23.039Z,13.00
2018-12-01T19:45:51.535Z,9.37
2018-12-01T19:48:20.070Z,13.00
2018-12-01T19:50:48.484Z,10.90
2018-12-01T19:53:17.840Z,11.13
2018-12-01T19:55:48.206Z,9.13
2018-12-01T19:58:18.986Z,11.43
2018-12-01T20:00:50.395Z,9.50
2018-12-01T20:03:20.242Z,10.87
2018-12-01T20:05:48.707Z,10.70
2018-12-01T20:08:18.370Z,12.03
2018-12-01T20:10:50.671Z,8.70
2018-12-01T20:13:27.652Z,8.17
2018-12-01T20:16:03.802Z,11.03
2018-12-01T20:18:32.214Z,9.80
2018-12-01T20:21:00.667Z,8.47
2018-12-01T20:23:29.691Z,11.20
2018-12-01T20:25:58.264Z,9.97
2018-12-01T20:28:26.694Z,10.37
2018-12-01T20:30:55.195Z,10.97
2018-12-01T20:33:23.635Z,12.10
2018-12-01T20:36:08.535Z,12.20
2018-12-01T20:38:42.378Z,11.77
2018-12-01T20:41:10.798Z,14.30
2018-12-01T20:43:39.230Z,12.43
2018-12-01T20:46:08.287Z,10.93
2018-12-01T20:48:36.823Z,11.97
2018-12-01T20:51:05.989Z,11.17
2018-12-01T20:53:35.528Z,11.22
2018-12-01T20:56:08.547Z,8.53
2018-12-01T20:58:36.998Z,12.60
2018-12-01T21:01:05.851Z,11.20
2018-12-01T21:03:34.266Z,14.63
2018-12-01T21:06:02.743Z,11.83
2018-12-01T21:08:31.164Z,11.63
2018-12-01T21:11:04.827Z,10.57
2018-12-01T21:13:33.245Z,11.80
2018-12-01T21:16:01.655Z,11.53
2018-12-01T21:18:30.110Z,10.97
2018-12-01T21:20:58.657Z,12.73
2018-12-01T21:23:27.367Z,13.37
2018-12-01T21:25:55.796Z,10.90
2018-12-01T21:28:24.193Z,13.03
2018-12-01T21:30:52.975Z,10.17
2018-12-01T21:33:24.207Z,10.60
2018-12-01T21:35:52.643Z,9.90
2018-12-01T21:38:21.086Z,12.57
2018-12-01T21:40:49.507Z,10.30
2018-12-01T21:43:17.942Z,13.77
2018-12-01T21:45:46.376Z,8.80
2018-12-01T21:48:15.504Z,11.83
2018-12-01T21:50:45.073Z,9.47
2018-12-01T21:53:18.315Z,11.93
2018-12-01T21:55:46.787Z,8.77
2018-12-01T21:58:15.389Z,10.60
2018-12-01T22:00:46.430Z,7.03
2018-12-01T22:03:15.834Z,8.43
2018-12-01T22:05:53.890Z,9.58
2018-12-01T22:08:22.372Z,7.80
2018-12-01T22:10:53.423Z,6.67
2018-12-01T22:13:22.181Z,5.70
2018-12-01T22:15:50.396Z,9.07
2018-12-01T22:18:18.997Z,6.37
2018-12-01T22:20:47.378Z,8.10
2018-12-01T22:23:15.767Z,8.00
2018-12-01T22:25:44.182Z,7.23
2018-12-01T22:28:13.659Z,3.83
2018-12-01T22:30:43.671Z,6.97
2018-12-01T22:33:14.735Z,5.93
2018-12-01T22:35:44.764Z,7.10
2018-12-01T22:38:13.231Z,5.03
2018-12-01T22:40:42.545Z,5.50
2018-12-01T22:43:11.105Z,5.50
2018-12-01T22:45:39.492Z,4.37
2018-12-01T22:48:11.475Z,5.77
2018-12-01T22:50:41.707Z,5.03
2018-12-01T22:53:10.106Z,7.13
2018-12-01T22:55:39.767Z,4.93
2018-12-01T22:58:13.270Z,5.23
2018-12-01T23:00:57.571Z,5.27
2018-12-01T23:03:28.344Z,7.60
2018-12-01T23:05:56.746Z,5.33
2018-12-01T23:08:26.346Z,5.50
2018-12-01T23:10:54.779Z,5.77
2018-12-01T23:13:23.391Z,7.07
2018-12-01T23:15:52.609Z,5.00
2018-12-01T23:18:23.575Z,5.37
2018-12-01T23:20:51.972Z,5.83
2018-12-01T23:23:20.595Z,5.87
2018-12-01T23:25:49.004Z,3.57
2018-12-01T23:28:17.418Z,4.63
2018-12-01T23:30:48.227Z,4.67
2018-12-01T23:33:18.544Z,4.73
2018-12-01T23:35:46.937Z,4.33
2018-12-01T23:38:15.343Z,5.17
2018-12-01T23:40:43.792Z,4.37
2018-12-01T23:43:12.215Z,4.97
2018-12-01T23:45:42.184Z,6.10
2018-12-01T23:48:10.598Z,3.77
2018-12-01T23:50:40.695Z,4.23
2018-12-01T23:53:11.615Z,4.80
2018-12-01T23:55:40.550Z,3.53
2018-12-01T23:58:08.968Z,5.53
